Time;durP1;ratioP1;P1;durP2;ratioP2;P2;SDS_P1;SDS_P2;PMS_P1;PMS_P2;Temp;Humidity;BMP_temperature;BMP_pressure;BME280_temperature;BME280_humidity;BME280_pressure;Samples;Min_cycle;Max_cycle;Signal;HPM_P1;HPM_P2
2022/07/14 00:00:45;;;;;;;;;10.75;9.50;;;;;28.99;33.23;101473.63;4884292;29;45431;-66
2022/07/14 00:03:10;;;;;;;;;11.75;9.00;;;;;28.98;33.06;101471.03;4877433;29;45995;-67
2022/07/14 00:05:36;;;;;;;;;11.00;9.00;;;;;28.96;33.27;101473.06;4888667;28;45374;-66
2022/07/14 00:08:02;;;;;;;;;8.25;8.25;;;;;28.92;33.26;101460.63;4876662;29;45867;-67
2022/07/14 00:10:27;;;;;;;;;7.00;7.00;;;;;28.94;33.61;101469.63;4884378;29;45283;-66
2022/07/14 00:12:53;;;;;;;;;8.00;8.00;;;;;28.89;33.15;101460.97;4886213;29;45282;-67
2022/07/14 00:15:19;;;;;;;;;10.50;10.00;;;;;28.88;33.70;101468.31;4875840;29;46024;-66
2022/07/14 00:17:44;;;;;;;;;12.25;10.75;;;;;28.91;33.37;101469.91;4884457;29;45282;-66
2022/07/14 00:20:10;;;;;;;;;8.75;8.75;;;;;28.88;33.29;101456.47;4872935;29;45513;-66
2022/07/14 00:22:36;;;;;;;;;9.25;9.25;;;;;28.85;34.09;101462.28;4880912;29;45318;-66
2022/07/14 00:25:01;;;;;;;;;10.00;8.25;;;;;28.80;33.22;101444.38;4880378;29;45355;-66
2022/07/14 00:27:27;;;;;;;;;11.50;9.50;;;;;28.77;33.49;101444.69;4885357;29;45688;-67
2022/07/14 00:29:53;;;;;;;;;9.75;8.75;;;;;28.76;33.61;101434.69;4889445;29;45331;-68
2022/07/14 00:32:18;;;;;;;;;11.00;10.00;;;;;28.74;34.11;101422.16;4875428;29;45363;-66
2022/07/14 00:34:44;;;;;;;;;11.75;11.75;;;;;28.73;34.27;101425.91;4890655;29;45528;-67
2022/07/14 00:37:09;;;;;;;;;12.25;11.50;;;;;28.71;33.67;101417.81;4880342;29;45369;-67
2022/07/14 00:42:28;;;;;;;;;9.50;9.50;;;;;28.67;33.99;101402.66;4881632;29;45380;-66
2022/07/14 00:44:53;;;;;;;;;12.25;10.75;;;;;28.60;34.06;101399.66;4889095;29;45520;-65
2022/07/14 00:47:19;;;;;;;;;14.00;13.00;;;;;28.64;34.93;101417.53;4893393;29;45422;-65
2022/07/14 00:49:44;;;;;;;;;13.25;10.75;;;;;28.65;34.52;101421.16;4883831;29;45546;-65
2022/07/14 00:52:09;;;;;;;;;10.50;10.00;;;;;28.61;34.42;101419.72;4871482;29;46758;-66
2022/07/14 00:54:35;;;;;;;;;12.75;10.25;;;;;28.57;34.79;101415.56;4880419;29;45225;-66
2022/07/14 00:57:00;;;;;;;;;11.00;10.00;;;;;28.58;34.68;101417.28;4874898;29;45476;-66
2022/07/14 00:59:26;;;;;;;;;13.00;11.00;;;;;28.58;34.66;101417.28;4879135;29;45228;-66
2022/07/14 01:01:51;;;;;;;;;13.00;11.00;;;;;28.56;34.56;101413.84;4878448;29;45197;-66
2022/07/14 01:04:16;;;;;;;;;10.75;10.75;;;;;28.52;35.23;101415.09;4876123;29;45370;-66
2022/07/14 01:06:42;;;;;;;;;11.50;11.25;;;;;28.51;34.83;101427.97;4869553;29;45416;-66
2022/07/14 01:09:07;;;;;;;;;14.75;14.75;;;;;28.46;34.75;101431.16;4874991;29;48501;-66
2022/07/14 01:11:32;;;;;;;;;15.75;15.25;;;;;28.50;34.88;101441.84;4877461;29;52382;-66
2022/07/14 01:14:02;;;;;;;;;16.00;14.00;;;;;28.48;35.68;101431.03;4881177;29;45283;-66
2022/07/14 01:16:27;;;;;;;;;17.00;17.00;;;;;28.50;35.67;101425.38;4885100;29;45565;-66
2022/07/14 01:18:53;;;;;;;;;22.25;22.25;;;;;28.51;35.29;101435.34;4881037;29;45856;-66
2022/07/14 01:21:18;;;;;;;;;20.50;19.00;;;;;28.52;35.60;101442.56;4881071;29;51409;-66
2022/07/14 01:23:43;;;;;;;;;24.00;22.75;;;;;28.51;35.34;101444.47;4872913;29;45425;-66
2022/07/14 01:26:09;;;;;;;;;21.75;20.75;;;;;28.47;35.43;101437.53;4883307;29;51723;-66
2022/07/14 01:28:34;;;;;;;;;27.50;26.75;;;;;28.46;35.67;101442.16;4879046;29;45374;-66
2022/07/14 01:30:59;;;;;;;;;25.25;23.50;;;;;28.44;36.10;101446.94;4870478;29;48316;-66
2022/07/14 01:33:24;;;;;;;;;29.75;26.50;;;;;28.42;35.85;101451.72;4872914;29;52893;-66
2022/07/14 01:35:50;;;;;;;;;26.75;26.50;;;;;28.38;35.34;101443.91;4879606;29;45248;-66
2022/07/14 01:38:16;;;;;;;;;22.50;21.75;;;;;28.36;35.83;101446.81;4875182;29;45585;-66
2022/07/14 01:40:41;;;;;;;;;18.25;16.00;;;;;28.40;35.01;101455.63;4871886;29;46024;-66
2022/07/14 01:43:07;;;;;;;;;16.00;15.75;;;;;28.40;35.53;101458.34;4886654;29;45329;-66
2022/07/14 01:45:34;;;;;;;;;15.00;12.50;;;;;28.39;35.17;101454.75;4891901;28;45456;-66
2022/07/14 01:48:00;;;;;;;;;12.00;12.00;;;;;28.37;35.22;101447.69;4878295;29;45521;-66
2022/07/14 01:50:26;;;;;;;;;12.25;12.25;;;;;28.33;34.89;101447.09;4881679;29;46404;-66
2022/07/14 01:52:51;;;;;;;;;12.25;11.25;;;;;28.31;35.27;101440.91;4873613;29;45500;-66
2022/07/14 01:55:16;;;;;;;;;9.75;9.25;;;;;28.32;35.53;101456.38;4864989;29;45663;-66
2022/07/14 01:57:42;;;;;;;;;9.25;9.25;;;;;28.22;35.42;101445.41;4879487;29;45421;-65
2022/07/14 02:00:08;;;;;;;;;7.75;7.25;;;;;28.25;35.11;101456.09;4878234;29;45947;-65
2022/07/14 02:02:33;;;;;;;;;8.50;7.25;;;;;28.21;35.28;101434.59;4881508;29;45466;-65
2022/07/14 02:04:59;;;;;;;;;8.25;8.00;;;;;28.24;35.24;101445.28;4875682;29;45400;-65
2022/07/14 02:07:24;;;;;;;;;7.25;6.25;;;;;28.19;35.53;101434.72;4894381;29;45396;-65
2022/07/14 02:12:33;;;;;;;;;5.75;5.75;;;;;28.15;35.29;101429.69;4880148;29;45350;-66
2022/07/14 02:14:59;;;;;;;;;8.50;7.25;;;;;28.08;34.92;101429.41;4880074;29;45670;-66
2022/07/14 02:17:24;;;;;;;;;6.00;6.00;;;;;28.03;35.22;101424.38;4875563;29;45468;-65
2022/07/14 02:19:50;;;;;;;;;5.00;5.00;;;;;28.07;35.40;101430.44;4876678;29;46568;-66
2022/07/14 02:22:15;;;;;;;;;5.50;5.50;;;;;28.04;35.61;101433.47;4873112;29;45357;-66
2022/07/14 02:24:41;;;;;;;;;6.75;6.75;;;;;27.98;35.28;101426.66;4883873;29;45229;-66
2022/07/14 02:27:07;;;;;;;;;7.00;7.00;;;;;27.96;35.66;101428.72;4878422;29;45416;-66
2022/07/14 02:29:32;;;;;;;;;1.75;1.75;;;;;27.93;35.79;101420.75;4872592;29;47490;-66
2022/07/14 02:31:58;;;;;;;;;8.00;7.75;;;;;27.85;35.69;101410.50;4865137;29;45160;-66
2022/07/14 02:34:23;;;;;;;;;9.25;8.25;;;;;27.88;35.55;101415.72;4872220;29;45809;-66
2022/07/14 02:36:48;;;;;;;;;8.00;7.25;;;;;27.84;35.79;101418.88;4882484;29;45498;-66
2022/07/14 02:39:14;;;;;;;;;5.00;5.00;;;;;27.83;35.71;101417.13;4877700;29;46153;-66
2022/07/14 02:41:40;;;;;;;;;10.00;8.75;;;;;27.75;35.70;101412.41;4882726;29;45173;-66
2022/07/14 02:44:06;;;;;;;;;8.50;7.25;;;;;27.74;35.87;101410.66;4886686;28;45404;-66
2022/07/14 02:46:31;;;;;;;;;7.50;7.50;;;;;27.76;35.41;101411.38;4874743;28;45309;-66
2022/07/14 02:48:56;;;;;;;;;6.25;5.25;;;;;27.70;35.52;101404.59;4874983;29;46302;-66
2022/07/14 02:51:21;;;;;;;;;8.75;6.25;;;;;27.71;35.89;101406.31;4877947;29;45384;-65
2022/07/14 02:53:47;;;;;;;;;10.75;8.00;;;;;27.71;36.20;101414.53;4870182;29;45356;-65
2022/07/14 02:56:12;;;;;;;;;8.00;8.00;;;;;27.69;36.01;101408.34;4872465;29;45262;-65
2022/07/14 02:58:38;;;;;;;;;10.50;7.75;;;;;27.69;36.11;101408.34;4880257;29;45386;-64
2022/07/14 03:01:06;;;;;;;;;6.25;6.00;;;;;27.67;36.11;101409.53;4887505;29;45583;-68
2022/07/14 03:03:32;;;;;;;;;10.75;7.50;;;;;27.60;36.45;101401.00;4870744;29;45511;-66
2022/07/14 03:05:57;;;;;;;;;5.00;5.00;;;;;27.63;36.26;101405.31;4880574;29;45570;-65
2022/07/14 03:08:23;;;;;;;;;7.25;7.25;;;;;27.59;36.30;101402.00;4882626;29;45216;-65
2022/07/14 03:10:49;;;;;;;;;6.25;6.00;;;;;27.57;36.67;101403.19;4878592;28;45529;-66
2022/07/14 03:13:14;;;;;;;;;5.50;5.50;;;;;27.58;36.86;101405.75;4874003;29;45415;-67
2022/07/14 03:15:40;;;;;;;;;8.00;7.00;;;;;27.54;36.77;101396.94;4879657;29;45466;-65
2022/07/14 03:18:05;;;;;;;;;7.00;5.75;;;;;27.52;36.75;101404.47;4880495;28;46227;-67
2022/07/14 03:20:30;;;;;;;;;5.00;5.00;;;;;27.51;36.86;101401.84;4881629;29;45594;-65
2022/07/14 03:22:56;;;;;;;;;6.00;6.00;;;;;27.50;36.89;101403.75;4876121;29;45279;-68
2022/07/14 03:25:22;;;;;;;;;9.00;8.50;;;;;27.42;36.95;101391.78;4874854;29;45582;-71
2022/07/14 03:27:47;;;;;;;;;6.50;6.25;;;;;27.49;36.94;101406.63;4873119;29;45512;-62
2022/07/14 03:30:14;;;;;;;;;4.25;4.00;;;;;27.45;37.12;101410.66;4874929;28;46214;-61
2022/07/14 03:32:39;;;;;;;;;5.50;4.75;;;;;27.40;37.17;101399.25;4881815;29;45393;-65
2022/07/14 03:35:07;;;;;;;;;6.50;6.50;;;;;27.38;37.08;101401.28;4890065;29;45930;-64
2022/07/14 03:37:33;;;;;;;;;8.75;8.75;;;;;27.38;37.51;101401.28;4883641;29;45688;-64
2022/07/14 03:39:58;;;;;;;;;7.00;7.00;;;;;27.33;37.61;101402.59;4881245;29;45248;-64
2022/07/14 03:42:24;;;;;;;;;8.00;8.00;;;;;27.28;37.68;101404.88;4882016;29;45359;-64
2022/07/14 03:44:49;;;;;;;;;7.50;7.00;;;;;27.24;37.70;101389.69;4898578;28;45159;-64
2022/07/14 03:47:15;;;;;;;;;7.00;7.00;;;;;27.24;37.83;101400.66;4875575;29;45349;-64
2022/07/14 03:49:41;;;;;;;;;6.50;6.50;;;;;27.21;37.84;101405.56;4867539;29;45275;-64
2022/07/14 03:52:06;;;;;;;;;8.00;8.00;;;;;27.17;38.48;101396.78;4878341;29;45475;-64
2022/07/14 03:54:31;;;;;;;;;9.00;8.50;;;;;27.12;38.37;101399.06;4881422;29;45440;-64
2022/07/14 03:56:57;;;;;;;;;7.50;7.50;;;;;27.11;38.59;101402.81;4867354;29;46230;-64
2022/07/14 03:59:22;;;;;;;;;7.50;7.50;;;;;27.10;38.96;101399.22;4866462;29;45492;-64
2022/07/14 04:01:47;;;;;;;;;8.75;8.50;;;;;26.99;38.71;101388.38;4866084;29;45418;-64
2022/07/14 04:04:13;;;;;;;;;6.00;6.00;;;;;27.06;38.42;101394.16;4867384;29;45284;-64
2022/07/14 04:06:38;;;;;;;;;8.00;8.00;;;;;27.04;38.82;101402.50;4867420;29;46260;-64
2022/07/14 04:09:03;;;;;;;;;8.50;7.75;;;;;26.99;38.98;101396.59;4877907;29;45387;-64
2022/07/14 04:11:29;;;;;;;;;7.25;7.25;;;;;26.92;39.13;101398.16;4893260;29;45358;-64
2022/07/14 04:13:54;;;;;;;;;8.00;7.25;;;;;26.89;39.25;101402.03;4870364;29;45305;-64
2022/07/14 04:16:19;;;;;;;;;8.75;7.75;;;;;26.91;39.07;101401.91;4879214;29;45319;-64
2022/07/14 04:18:45;;;;;;;;;8.00;8.00;;;;;26.90;39.23;101403.78;4880830;29;45256;-64
2022/07/14 04:21:10;;;;;;;;;9.00;8.00;;;;;26.90;39.15;101403.78;4870142;29;45220;-64
2022/07/14 04:23:36;;;;;;;;;11.75;7.75;;;;;26.83;39.16;101401.72;4885451;29;45508;-64
2022/07/14 04:26:03;;;;;;;;;6.00;6.00;;;;;26.82;39.79;101408.25;4885806;29;46301;-64
2022/07/14 04:28:28;;;;;;;;;8.00;8.00;;;;;26.82;39.81;101405.50;4868062;29;45426;-64
2022/07/14 04:30:54;;;;;;;;;7.00;7.00;;;;;26.77;39.53;101403.16;4867383;29;45211;-64
2022/07/14 04:33:20;;;;;;;;;7.00;7.00;;;;;26.77;40.06;101406.75;4866945;29;45230;-64
2022/07/14 04:35:45;;;;;;;;;6.25;6.25;;;;;26.70;40.00;101411.06;4869934;29;46425;-64
2022/07/14 04:38:11;;;;;;;;;7.75;6.75;;;;;26.56;39.92;101392.25;4885405;29;45457;-64
2022/07/14 04:40:36;;;;;;;;;9.50;9.50;;;;;26.62;39.90;101402.66;4885342;29;45325;-64
2022/07/14 04:43:01;;;;;;;;;7.25;6.00;;;;;26.62;40.14;101403.50;4892415;29;45734;-64
2022/07/14 04:45:27;;;;;;;;;7.25;7.25;;;;;26.62;40.57;101408.13;4893106;28;46128;-64
2022/07/14 04:47:52;;;;;;;;;7.50;6.00;;;;;26.57;40.72;101408.53;4897914;29;45358;-64
2022/07/14 04:53:02;;;;;;;;;8.75;7.25;;;;;26.58;40.49;101418.50;4882436;29;45507;-64
2022/07/14 04:55:27;;;;;;;;;7.25;7.00;;;;;26.55;40.56;101418.75;4884086;29;45381;-64
2022/07/14 04:57:53;;;;;;;;;7.50;7.50;;;;;26.54;40.92;101419.75;4884982;29;45411;-64
2022/07/14 05:00:18;;;;;;;;;8.75;6.75;;;;;26.56;40.87;101422.34;4881569;29;45264;-64
2022/07/14 05:02:44;;;;;;;;;7.75;7.75;;;;;26.54;40.48;101417.03;4884408;29;45608;-64
2022/07/14 05:05:10;;;;;;;;;7.75;7.75;;;;;26.58;40.64;101421.22;4883269;29;45339;-64
2022/07/14 05:07:35;;;;;;;;;9.25;9.25;;;;;26.58;40.93;101421.22;4877547;29;45724;-64
2022/07/14 05:10:01;;;;;;;;;10.75;7.25;;;;;26.55;41.37;101410.56;4870862;29;45444;-64
2022/07/14 05:12:27;;;;;;;;;9.00;8.75;;;;;26.57;40.71;101421.38;4882858;29;45483;-64
2022/07/14 05:14:53;;;;;;;;;8.00;8.00;;;;;26.54;40.81;101414.28;4872842;29;46066;-64
2022/07/14 05:17:18;;;;;;;;;8.00;8.00;;;;;26.55;40.75;101420.66;4883664;29;45127;-64
2022/07/14 05:19:46;;;;;;;;;9.50;8.25;;;;;26.52;41.02;101416.28;4884955;29;45308;-64
2022/07/14 05:22:12;;;;;;;;;8.25;8.25;;;;;26.55;41.33;101426.13;4883562;29;45526;-64
2022/07/14 05:24:37;;;;;;;;;8.00;8.00;;;;;26.50;41.25;101421.06;4884659;29;45392;-64
2022/07/14 05:27:03;;;;;;;;;9.50;8.75;;;;;26.50;40.85;101409.25;4879909;29;45415;-64
2022/07/14 05:29:28;;;;;;;;;9.00;9.00;;;;;26.54;41.35;101422.50;4884452;29;45445;-65
2022/07/14 05:31:53;;;;;;;;;8.50;8.50;;;;;26.51;41.35;101420.03;4881696;29;45396;-64
2022/07/14 05:34:19;;;;;;;;;8.75;8.75;;;;;26.45;41.05;101415.13;4883936;29;45314;-64
2022/07/14 05:36:44;;;;;;;;;6.50;6.00;;;;;26.41;41.30;101420.00;4866969;29;45424;-64
2022/07/14 05:39:10;;;;;;;;;9.50;9.50;;;;;26.41;41.63;101428.22;4872646;29;45399;-64
2022/07/14 05:41:35;;;;;;;;;9.25;8.50;;;;;26.35;42.33;101414.22;4897017;29;47922;-64
2022/07/14 05:44:00;;;;;;;;;9.50;9.50;;;;;26.32;41.56;101420.81;4892496;29;46154;-65
2022/07/14 05:46:26;;;;;;;;;7.75;7.75;;;;;26.31;42.44;101416.34;4885339;29;45173;-64
2022/07/14 05:48:51;;;;;;;;;7.75;6.25;;;;;26.32;42.34;101419.94;4884100;29;45173;-64
2022/07/14 05:51:18;;;;;;;;;9.00;8.25;;;;;26.31;41.96;101426.41;4876383;29;45371;-65
2022/07/14 05:53:46;;;;;;;;;8.50;8.00;;;;;26.32;42.20;101433.63;4883159;29;46372;-65
2022/07/14 05:56:12;;;;;;;;;7.75;7.75;;;;;26.33;42.27;101427.13;4902173;28;45489;-65
2022/07/14 05:58:39;;;;;;;;;7.25;7.25;;;;;26.32;42.67;101430.91;4884531;29;45453;-64
2022/07/14 06:01:06;;;;;;;;;8.75;8.75;;;;;26.34;42.35;101440.69;4875591;29;45651;-64
2022/07/14 06:03:31;;;;;;;;;8.25;8.00;;;;;26.33;42.54;101433.50;4865614;29;46083;-64
2022/07/14 06:06:05;;;;;;;;;6.50;6.50;;;;;26.37;42.33;101440.44;4865776;29;45310;-64
2022/07/14 06:08:31;;;;;;;;;7.00;7.00;;;;;26.35;42.61;101430.63;4865901;29;45209;-65
2022/07/14 06:10:57;;;;;;;;;8.25;7.75;;;;;26.36;42.22;101421.41;4865624;29;45235;-64
2022/07/14 06:13:24;;;;;;;;;7.25;7.25;;;;;26.38;42.46;101430.34;4865546;29;46055;-65
2022/07/14 06:15:49;;;;;;;;;9.50;8.00;;;;;26.37;42.71;101440.44;4876799;29;45560;-64
2022/07/14 06:18:15;;;;;;;;;12.00;9.00;;;;;26.35;42.93;101436.09;4887269;28;45297;-65
2022/07/14 06:20:41;;;;;;;;;8.75;8.75;;;;;26.29;42.55;101437.50;4875208;29;45555;-65
2022/07/14 06:23:09;;;;;;;;;10.25;8.50;;;;;26.35;42.47;101441.59;4881797;29;45569;-67
2022/07/14 06:25:34;;;;;;;;;8.25;7.25;;;;;26.33;42.69;101433.50;4884295;29;45371;-66
2022/07/14 06:28:00;;;;;;;;;9.25;8.25;;;;;26.37;42.48;101439.56;4873170;29;45360;-68
2022/07/14 06:30:25;;;;;;;;;9.75;9.75;;;;;26.37;42.13;101439.56;4895362;29;45484;-68
2022/07/14 06:32:51;;;;;;;;;8.75;8.75;;;;;26.37;42.67;101439.56;4869684;29;45993;-68
2022/07/14 06:35:16;;;;;;;;;9.75;9.00;;;;;26.37;43.27;101445.91;4865536;29;45246;-68
2022/07/14 06:37:41;;;;;;;;;8.25;8.25;;;;;26.32;42.94;101442.69;4870096;29;45290;-68
2022/07/14 06:40:07;;;;;;;;;10.25;9.00;;;;;26.26;42.55;101443.22;4884045;29;45412;-68
2022/07/14 06:42:33;;;;;;;;;6.50;6.50;;;;;26.28;43.71;101454.94;4888369;29;45260;-68
2022/07/14 06:44:59;;;;;;;;;11.75;9.50;;;;;26.25;43.57;101447.00;4890113;29;45268;-68
2022/07/14 06:47:24;;;;;;;;;7.25;7.25;;;;;26.23;43.64;101451.75;4871369;29;45473;-68
2022/07/14 06:49:49;;;;;;;;;9.75;9.75;;;;;26.21;43.59;101449.13;4883632;29;45319;-68
2022/07/14 06:52:15;;;;;;;;;12.25;9.50;;;;;26.19;42.99;101456.59;4881100;29;57090;-68
2022/07/14 06:54:40;;;;;;;;;9.00;8.75;;;;;26.12;43.78;101443.59;4882048;29;45505;-68
2022/07/14 06:57:06;;;;;;;;;10.25;8.75;;;;;26.15;43.31;101463.34;4881401;29;45565;-68
2022/07/14 06:59:31;;;;;;;;;10.75;10.75;;;;;26.14;43.96;101453.38;4883230;29;45496;-68
2022/07/14 07:01:57;;;;;;;;;10.25;10.25;;;;;26.12;43.15;101451.81;4882724;29;45568;-68
2022/07/14 07:04:23;;;;;;;;;8.25;8.25;;;;;26.16;43.73;101447.78;4882882;29;45484;-69
2022/07/14 07:06:50;;;;;;;;;11.00;10.75;;;;;26.14;43.97;101447.91;4882019;29;45477;-69
2022/07/14 07:09:18;;;;;;;;;12.50;12.25;;;;;26.13;43.51;101456.25;4868405;29;45358;-68
2022/07/14 07:11:45;;;;;;;;;10.00;9.25;;;;;26.08;43.66;101448.47;4869659;29;45300;-68
2022/07/14 07:14:10;;;;;;;;;9.75;8.75;;;;;26.14;44.07;101456.13;4885659;29;45286;-68
2022/07/14 07:16:36;;;;;;;;;8.00;8.00;;;;;26.19;44.26;101453.84;4891339;29;45453;-67
2022/07/14 07:19:02;;;;;;;;;9.75;9.75;;;;;26.22;43.78;101456.31;4885647;29;45327;-67
2022/07/14 07:21:27;;;;;;;;;9.75;9.50;;;;;26.22;43.84;101448.13;4871686;29;46061;-67
2022/07/14 07:23:54;;;;;;;;;10.25;10.25;;;;;26.30;43.91;101465.75;4875477;29;45351;-68
2022/07/14 07:26:22;;;;;;;;;8.75;8.75;;;;;26.30;43.94;101452.94;4885532;29;45374;-68
2022/07/14 07:28:48;;;;;;;;;10.75;9.50;;;;;26.25;43.47;101449.72;4868131;29;45245;-68
2022/07/14 07:31:13;;;;;;;;;9.25;9.00;;;;;26.30;43.48;101452.06;4886919;29;47158;-68
2022/07/14 07:33:39;;;;;;;;;7.50;7.50;;;;;26.28;44.02;101446.72;4878684;29;45233;-68
2022/07/14 07:36:04;;;;;;;;;10.00;9.25;;;;;26.31;43.57;101440.09;4885231;29;45565;-68
2022/07/14 07:38:30;;;;;;;;;8.75;8.75;;;;;26.34;43.91;101435.22;4885062;29;45333;-68
2022/07/14 07:40:55;;;;;;;;;10.50;10.00;;;;;26.37;43.89;101445.91;4885566;29;45544;-68
2022/07/14 07:43:21;;;;;;;;;11.00;10.00;;;;;26.43;43.66;101449.97;4885688;29;45479;-68
2022/07/14 07:45:47;;;;;;;;;9.25;9.25;;;;;26.42;44.16;101431.81;4886584;29;45427;-67
2022/07/14 07:48:13;;;;;;;;;10.50;9.50;;;;;26.47;43.54;101445.09;4885944;29;45418;-67
2022/07/14 07:50:42;;;;;;;;;10.00;9.75;;;;;26.48;43.24;101450.44;4885329;29;45294;-68
2022/07/14 07:53:08;;;;;;;;;9.00;9.00;;;;;26.54;43.30;101440.81;4884408;29;45402;-68
2022/07/14 07:55:33;;;;;;;;;11.00;11.00;;;;;26.57;43.33;101441.38;4885706;29;45328;-67
2022/07/14 07:58:01;;;;;;;;;8.25;7.75;;;;;26.61;43.32;101442.88;4885788;29;45401;-68
2022/07/14 08:00:27;;;;;;;;;7.25;7.25;;;;;26.64;43.15;101438.16;4885644;29;45934;-67
2022/07/14 08:02:54;;;;;;;;;11.00;11.00;;;;;26.68;43.30;101428.63;4885509;29;45413;-67
2022/07/14 08:05:23;;;;;;;;;9.50;9.00;;;;;26.71;43.36;101431.97;4885590;29;45327;-67
2022/07/14 08:07:49;;;;;;;;;9.50;9.50;;;;;26.77;43.34;101434.16;4885373;29;45512;-67
2022/07/14 08:10:15;;;;;;;;;9.25;8.00;;;;;26.85;43.31;101441.69;4885072;29;45288;-67
2022/07/14 08:12:44;;;;;;;;;7.75;7.25;;;;;26.86;43.46;101434.31;4886109;29;45244;-67
2022/07/14 08:15:09;;;;;;;;;10.75;10.50;;;;;26.90;43.08;101430.31;4885708;29;45308;-68
2022/07/14 08:17:35;;;;;;;;;11.00;10.00;;;;;26.97;42.88;101435.06;4889803;29;45581;-67
2022/07/14 08:20:01;;;;;;;;;10.25;10.25;;;;;26.97;42.43;101437.81;4881075;29;45225;-67
2022/07/14 08:22:27;;;;;;;;;9.50;8.75;;;;;26.97;42.92;101432.34;4867493;29;45269;-69
2022/07/14 08:24:54;;;;;;;;;10.25;9.25;;;;;26.96;42.57;101427.88;4873651;29;45521;-68
2022/07/14 08:27:20;;;;;;;;;13.50;10.00;;;;;27.01;42.60;101432.06;4881070;29;45558;-68
2022/07/14 08:29:45;;;;;;;;;9.50;9.50;;;;;27.10;42.48;101433.97;4872264;29;46116;-69
2022/07/14 08:32:11;;;;;;;;;8.75;8.75;;;;;27.09;41.83;101424.00;4875957;29;45466;-69
2022/07/14 08:34:37;;;;;;;;;9.00;8.75;;;;;27.14;42.20;101422.56;4890590;28;45580;-68
2022/07/14 08:37:03;;;;;;;;;8.00;8.00;;;;;27.24;42.85;101432.69;4884348;29;45470;-66
2022/07/14 08:39:29;;;;;;;;;8.25;7.75;;;;;27.24;41.93;101425.31;4885736;28;46345;-66
2022/07/14 08:41:54;;;;;;;;;8.25;8.25;;;;;27.22;41.37;101424.59;4888779;29;45408;-67
2022/07/14 08:44:21;;;;;;;;;9.00;7.25;;;;;27.20;41.84;101425.75;4896626;28;45318;-66
2022/07/14 08:46:46;;;;;;;;;10.25;10.00;;;;;27.22;42.28;101427.34;4881929;29;45400;-70
2022/07/14 08:49:14;;;;;;;;;9.00;9.00;;;;;27.29;42.33;101425.78;4881060;29;48303;-65
2022/07/14 08:51:40;;;;;;;;;10.00;10.00;;;;;27.33;41.80;101427.25;4866211;29;45454;-65
2022/07/14 08:54:09;;;;;;;;;9.50;8.25;;;;;27.35;41.41;101425.22;4866242;29;45384;-67
2022/07/14 08:56:34;;;;;;;;;8.00;8.00;;;;;27.37;41.57;101424.25;4866416;29;45549;-67
2022/07/14 08:58:59;;;;;;;;;9.00;7.50;;;;;27.42;41.43;101421.94;4874119;29;46288;-67
2022/07/14 09:01:26;;;;;;;;;2.50;2.50;;;;;27.42;40.77;101411.81;4868805;29;45387;-65
2022/07/14 09:03:55;;;;;;;;;9.75;8.75;;;;;27.50;40.91;101419.34;4879966;29;45479;-64
2022/07/14 09:06:43;;;;;;;;;10.75;9.00;;;;;27.54;41.16;101429.00;4874685;29;45963;-65
2022/07/14 09:09:09;;;;;;;;;12.00;11.75;;;;;27.57;40.79;101428.72;4872116;29;46158;-65
2022/07/14 09:11:34;;;;;;;;;11.25;10.75;;;;;27.59;40.75;101420.34;4887889;29;45384;-65
2022/07/14 09:14:18;;;;;;;;;12.75;12.00;;;;;27.64;40.29;101421.63;4875069;29;45446;-65
2022/07/14 09:16:43;;;;;;;;;9.50;9.50;;;;;27.68;40.98;101422.19;4884633;29;45493;-65
2022/07/14 09:19:12;;;;;;;;;11.00;10.75;;;;;27.72;40.76;101420.91;4884729;29;45930;-65
2022/07/14 09:21:39;;;;;;;;;9.25;8.25;;;;;27.75;40.00;101417.00;4870934;29;45350;-65
2022/07/14 09:24:06;;;;;;;;;7.00;7.00;;;;;27.78;40.25;101423.06;4877644;29;45302;-65
2022/07/14 09:26:33;;;;;;;;;11.25;10.25;;;;;27.79;39.92;101415.72;4868725;29;45445;-65
2022/07/14 09:28:59;;;;;;;;;9.75;9.75;;;;;27.80;39.24;101403.72;4865314;29;45356;-65
2022/07/14 09:31:30;;;;;;;;;8.50;7.50;;;;;27.79;39.45;101405.59;4868623;29;45346;-65
2022/07/14 09:34:00;;;;;;;;;9.75;9.75;;;;;27.82;39.56;101407.19;4864721;29;45368;-65
2022/07/14 09:36:31;;;;;;;;;8.50;8.50;;;;;27.84;39.90;101416.13;4868208;29;45333;-65
2022/07/14 09:39:05;;;;;;;;;7.25;7.25;;;;;27.83;39.66;101407.06;4880547;29;45461;-65
2022/07/14 09:41:47;;;;;;;;;8.75;8.75;;;;;27.88;39.37;101409.34;4883155;29;45510;-65
2022/07/14 09:44:17;;;;;;;;;11.25;8.25;;;;;27.91;39.58;101411.78;4886011;29;45425;-69
2022/07/14 09:46:48;;;;;;;;;6.75;6.75;;;;;27.96;38.97;101411.38;4882282;29;45414;-69
2022/07/14 09:49:15;;;;;;;;;8.25;7.25;;;;;27.96;38.79;101425.97;4872466;29;47350;-65
2022/07/14 09:51:54;;;;;;;;;7.00;7.00;;;;;28.00;38.75;101426.53;4877521;29;45500;-66
2022/07/14 09:54:44;;;;;;;;;7.50;7.25;;;;;28.03;38.27;101418.00;4875295;29;45492;-65
2022/07/14 09:57:12;;;;;;;;;10.00;8.75;;;;;28.06;38.82;101418.56;4879355;29;45352;-65
2022/07/14 10:00:19;;;;;;;;;7.50;7.50;;;;;28.09;38.31;101422.91;4870720;29;45374;-65
2022/07/14 10:02:46;;;;;;;;;6.50;5.75;;;;;28.13;38.37;101412.50;4854360;29;45497;-68
2022/07/14 10:05:12;;;;;;;;;8.25;7.50;;;;;28.15;38.48;101416.84;4883888;29;45292;-66
2022/07/14 10:07:39;;;;;;;;;8.75;8.75;;;;;28.20;38.31;101414.50;4883570;29;45479;-65
2022/07/14 10:10:06;;;;;;;;;7.75;7.75;;;;;28.20;38.04;101409.03;4873317;29;46126;-65
2022/07/14 10:12:33;;;;;;;;;6.00;6.00;;;;;28.19;38.04;101410.03;4870107;29;45455;-65
2022/07/14 10:15:05;;;;;;;;;7.25;7.25;;;;;28.26;37.44;101407.56;4886655;29;47532;-64
2022/07/14 10:17:31;;;;;;;;;5.00;5.00;;;;;28.28;37.96;101414.63;4871864;29;45889;-65
2022/07/14 10:19:57;;;;;;;;;5.00;5.00;;;;;28.32;37.61;101415.19;4878750;29;45476;-65
2022/07/14 10:22:23;;;;;;;;;8.00;8.00;;;;;28.32;37.19;101415.19;4869329;29;45866;-67
2022/07/14 10:24:52;;;;;;;;;7.50;7.50;;;;;28.34;37.18;101420.53;4884263;28;45871;-66
2022/07/14 10:27:18;;;;;;;;;10.50;8.75;;;;;28.33;37.60;101413.31;4878422;29;45555;-66
2022/07/14 10:29:50;;;;;;;;;7.25;6.25;;;;;28.36;38.10;101413.00;4878474;29;45498;-67
2022/07/14 10:32:50;;;;;;;;;8.25;8.25;;;;;28.41;37.83;101406.03;4875101;29;45504;-69
2022/07/14 10:35:28;;;;;;;;;140.00;134.75;;;;;28.39;37.42;101396.25;4875115;29;45690;-65
2022/07/14 10:38:05;;;;;;;;;64.25;51.25;;;;;28.51;37.76;101410.66;4873867;29;45900;-67
2022/07/14 10:40:45;;;;;;;;;7.25;6.00;;;;;28.53;37.91;101417.69;4887299;29;46078;-68
2022/07/14 10:43:23;;;;;;;;;7.00;5.50;;;;;28.60;37.22;101404.25;4882631;29;45818;-71
2022/07/14 10:45:51;;;;;;;;;8.00;8.00;;;;;28.60;36.59;101402.41;4878782;29;45475;-70
2022/07/14 10:48:33;;;;;;;;;6.00;6.00;;;;;28.64;37.52;101414.81;4890143;28;45478;-68
2022/07/14 10:51:14;;;;;;;;;5.00;5.00;;;;;28.68;36.68;101423.59;4872390;29;45887;-66
2022/07/14 10:54:04;;;;;;;;;6.25;4.50;;;;;28.71;37.74;101420.56;4876726;29;45458;-70
2022/07/14 10:56:30;;;;;;;;;4.00;4.00;;;;;28.73;36.35;101412.16;4876753;29;45680;-70
2022/07/14 10:59:27;;;;;;;;;6.00;6.00;;;;;28.78;35.82;101413.41;4880405;29;45671;-71
2022/07/14 11:02:13;;;;;;;;;6.75;5.00;;;;;28.81;36.72;101412.25;4874415;29;45640;-70
2022/07/14 11:04:57;;;;;;;;;5.00;5.00;;;;;28.82;35.90;101403.88;4871620;29;45499;-69
2022/07/14 11:07:40;;;;;;;;;5.25;5.25;;;;;28.85;36.04;101402.69;4880051;29;45460;-69
2022/07/14 11:10:26;;;;;;;;;5.50;4.25;;;;;28.89;36.01;101408.75;4880633;29;45613;-68
2022/07/14 11:13:03;;;;;;;;;4.25;4.25;;;;;28.92;35.66;101402.94;4872244;29;46826;-69
2022/07/14 11:15:44;;;;;;;;;3.25;3.25;;;;;28.91;36.15;101402.06;4876740;29;45602;-68
2022/07/14 11:18:18;;;;;;;;;4.25;3.25;;;;;28.95;35.81;101402.63;4878117;29;45450;-68
2022/07/14 11:20:59;;;;;;;;;4.00;4.00;;;;;29.00;35.91;101408.53;4871451;29;45657;-69
2022/07/14 11:23:27;;;;;;;;;4.00;4.00;;;;;29.06;35.15;101410.66;4879869;29;46038;-68
2022/07/14 11:25:54;;;;;;;;;4.75;4.25;;;;;29.06;34.92;101399.66;4862473;29;45678;-71
2022/07/14 11:28:31;;;;;;;;;4.50;4.50;;;;;29.13;35.28;101416.41;4880524;29;45545;-72
2022/07/14 11:31:19;;;;;;;;;5.00;5.00;;;;;29.18;34.47;101419.59;4875668;29;45650;-74